PDT,Max TemperatureF,Mean TemperatureF,Min TemperatureF,Max Dew PointF,MeanDew PointF,Min DewpointF,Max Humidity, Mean Humidity, Min Humidity, Max Sea Level PressureIn, Mean Sea Level PressureIn, Min Sea Level PressureIn, Max VisibilityMiles, Mean VisibilityMiles, Min VisibilityMiles, Max Wind SpeedMPH, Mean Wind SpeedMPH, Max Gust SpeedMPH,PrecipitationIn, CloudCover, Events, WindDirDegrees
2013-3-1,75,70,64,22,17,12,15,13,12,30.28,30.21,30.15,10,10,10,16,7,22,0.00,0,,355
2013-3-2,75,68,62,26,19,15,19,14,12,30.19,30.13,30.08,10,10,10,10,4,,0.00,0,,278
2013-3-3,64,56,48,50,43,18,100,76,17,30.12,30.04,29.99,10,4,0,13,9,18,0.00,5,Fog,252
2013-3-4,57,52,46,49,47,39,100,88,55,30.11,30.07,30.02,10,4,0,10,6,,0.00,4,Fog,257
2013-3-5,53,50,46,48,45,39,100,91,76,30.14,30.09,30.05,10,4,0,14,7,,0.00,8,Fog-Rain,244
2013-3-6,54,49,44,47,42,37,93,76,58,30.15,30.10,30.01,10,10,9,10,5,,0.00,5,,250
2013-3-7,54,50,46,47,44,37,100,85,55,30.01,29.97,29.84,10,6,0,12,7,18,0.03,6,Fog-Rain,225
2013-3-8,48,45,42,47,42,37,100,87,71,30.06,29.89,29.79,10,7,0,22,15,33,0.22,7,Fog-Rain,268
2013-3-9,54,48,44,44,39,32,83,70,43,30.21,30.13,30.04,10,10,8,23,13,34,0.00,3,,298
2013-3-10,66,58,51,40,33,18,59,40,20,30.26,30.21,30.16,10,10,10,14,6,,0.00,0,,305
2013-3-11,69,64,59,41,29,19,48,28,20,30.16,30.11,30.04,10,10,10,10,6,,0.00,0,,288
2013-3-12,73,65,57,40,30,18,42,27,16,30.08,30.04,30.01,10,10,10,9,5,,0.00,0,,312
2013-3-13,81,74,68,37,26,14,26,18,12,30.09,30.05,30.01,10,10,10,10,6,,0.00,0,,343
2013-3-14,84,74,66,37,31,18,27,21,14,30.06,30.02,29.99,10,10,10,13,9,,0.00,0,,308
2013-3-15,78,70,62,42,31,21,46,25,14,29.99,29.95,29.90,10,10,10,9,6,,0.00,0,,264
2013-3-16,66,58,51,50,46,38,94,70,42,29.98,29.93,29.88,10,8,0,12,4,,0.00,1,Fog,292
2013-3-17,63,54,46,50,46,38,97,81,41,30.02,29.97,29.93,10,6,0,9,4,,0.00,1,Fog,330
2013-3-18,60,52,46,49,47,45,100,88,67,30.09,30.04,29.97,10,5,0,12,6,,0.00,4,Fog,191
2013-3-19,62,55,48,52,48,40,97,86,50,30.13,30.09,30.04,10,4,0,15,4,,0.00,2,Fog,256
2013-3-20,64,58,54,51,43,33,78,60,38,30.10,30.04,29.97,10,10,9,16,5,23,0.00,0,,274
2013-3-21,64,56,50,51,47,39,94,76,49,29.95,29.89,29.83,10,6,0,13,8,,0.00,1,Fog,282
2013-3-22,64,56,51,50,43,30,82,61,31,29.90,29.85,29.80,10,10,8,16,7,,0.00,0,,305
2013-3-23,64,56,48,50,43,24,100,68,28,30.01,29.95,29.89,10,8,1,8,6,,0.00,1,,124
2013-3-24,66,57,48,50,34,14,96,44,14,30.01,29.96,29.91,10,9,0,8,3,,0.00,0,Fog,273
2013-3-25,71,62,54,53,41,26,75,49,25,29.95,29.92,29.89,10,10,9,7,2,,0.00,0,,195
2013-3-26,63,56,48,50,46,30,100,79,35,29.98,29.95,29.91,10,6,0,9,4,,0.00,1,Fog,255
2013-3-27,60,54,48,50,47,43,96,88,62,30.06,29.99,29.92,10,5,0,8,3,,0.00,4,Fog,205
2013-3-28,64,56,50,52,49,47,96,82,56,30.08,30.05,30.02,10,6,0,12,4,,0.00,1,Fog,264
2013-3-29,71,58,48,52,49,32,96,79,31,30.13,30.09,30.03,10,5,0,13,5,,0.00,2,Fog,235
2013-3-30,64,56,50,53,49,45,100,89,62,30.14,30.11,30.06,10,4,0,12,5,,0.01,3,Fog,262
2013-3-31,63,55,50,54,52,49,100,91,72,30.15,30.11,30.07,10,5,0,15,6,21,0.02,8,Fog-Rain,237